Time;durP1;ratioP1;P1;durP2;ratioP2;P2;SDS_P1;SDS_P2;PMS_P1;PMS_P2;Temp;Humidity;BMP_temperature;BMP_pressure;BME280_temperature;BME280_humidity;BME280_pressure;Samples;Min_cycle;Max_cycle;Signal;HPM_P1;HPM_P2
2021/07/24 00:00:46;;;;;;;;;17.25;14.25;;;;;27.17;40.88;100221.34;6279022;22;45275;-69
2021/07/24 00:03:12;;;;;;;;;14.00;11.75;;;;;27.17;40.83;100216.69;6278332;22;45262;-69
2021/07/24 00:05:37;;;;;;;;;15.25;14.25;;;;;27.22;41.26;100218.09;6278831;22;45310;-69
2021/07/24 00:08:03;;;;;;;;;13.50;13.50;;;;;27.22;40.92;100251.81;6278376;22;45328;-69
2021/07/24 00:10:28;;;;;;;;;15.00;13.25;;;;;27.20;41.12;100242.03;6278602;22;46225;-69
2021/07/24 00:12:53;;;;;;;;;15.75;14.00;;;;;27.22;40.93;100240.84;6278564;22;45393;-69
2021/07/24 00:15:19;;;;;;;;;13.25;13.25;;;;;27.21;40.67;100254.72;6278833;22;45224;-69
2021/07/24 00:17:44;;;;;;;;;14.25;14.00;;;;;27.18;41.04;100248.56;6278462;22;45479;-69
2021/07/24 00:20:10;;;;;;;;;12.75;12.50;;;;;27.20;41.26;100229.22;6278250;22;50246;-69
2021/07/24 00:22:35;;;;;;;;;12.25;12.25;;;;;27.18;41.08;100217.56;6277733;22;45763;-69
2021/07/24 00:25:00;;;;;;;;;15.00;15.00;;;;;27.16;41.28;100223.22;6274175;22;45295;-69
2021/07/24 00:27:29;;;;;;;;;15.50;15.25;;;;;27.11;41.17;100222.00;6276929;22;45354;-69
2021/07/24 00:29:54;;;;;;;;;14.75;12.75;;;;;27.04;41.47;100220.97;6276371;22;46360;-69
2021/07/24 00:32:20;;;;;;;;;15.00;14.50;;;;;27.09;41.31;100224.06;6274862;22;45283;-69
2021/07/24 00:34:45;;;;;;;;;12.75;11.75;;;;;27.11;41.45;100227.47;6277310;22;45334;-69
2021/07/24 00:37:13;;;;;;;;;13.25;12.00;;;;;27.02;41.23;100218.41;6277163;22;45358;-69
2021/07/24 00:39:38;;;;;;;;;15.50;15.50;;;;;27.04;41.76;100234.69;6277458;22;46236;-69
2021/07/24 00:42:22;;;;;;;;;15.50;13.25;;;;;26.88;41.43;100194.41;6278468;22;45370;-69
2021/07/24 00:44:50;;;;;;;;;11.25;11.25;;;;;26.92;41.65;100204.03;6278896;22;45286;-69
2021/07/24 00:47:19;;;;;;;;;12.75;12.75;;;;;26.91;41.69;100207.78;6278306;22;45197;-68
2021/07/24 00:49:45;;;;;;;;;13.25;13.25;;;;;26.90;41.72;100230.72;6249096;22;45999;-69
2021/07/24 00:52:11;;;;;;;;;16.75;16.75;;;;;26.95;41.69;100244.78;6277549;22;45282;-68
2021/07/24 00:54:39;;;;;;;;;14.75;12.50;;;;;26.92;41.86;100235.00;6278708;22;45261;-69
2021/07/24 00:57:04;;;;;;;;;13.00;10.75;;;;;26.81;41.99;100213.41;6276412;22;45354;-69
2021/07/24 00:59:30;;;;;;;;;14.00;14.00;;;;;26.83;42.00;100229.66;6278235;22;46308;-69
2021/07/24 01:01:55;;;;;;;;;15.75;15.25;;;;;26.93;42.17;100244.94;6278670;22;45268;-69
2021/07/24 01:04:21;;;;;;;;;13.25;13.25;;;;;26.88;41.96;100233.63;6276187;22;45726;-69
2021/07/24 01:06:49;;;;;;;;;16.75;15.25;;;;;26.75;42.30;100195.78;6250387;22;45762;-68
2021/07/24 01:09:14;;;;;;;;;12.50;12.50;;;;;26.84;42.60;100210.34;6278234;22;45570;-68
2021/07/24 01:11:40;;;;;;;;;14.25;14.25;;;;;26.70;43.01;100189.13;6278524;22;45256;-68
2021/07/24 01:14:06;;;;;;;;;12.50;12.50;;;;;26.83;42.82;100205.03;6277796;22;45413;-68
2021/07/24 01:16:31;;;;;;;;;17.00;15.00;;;;;26.69;42.55;100177.28;6278477;22;45383;-69
2021/07/24 01:18:56;;;;;;;;;15.50;15.50;;;;;26.83;43.04;100203.16;6250383;22;46749;-69
2021/07/24 01:21:27;;;;;;;;;14.25;13.50;;;;;26.80;43.02;100204.34;6250269;22;45372;-69
2021/07/24 01:23:52;;;;;;;;;15.25;13.75;;;;;26.82;43.16;100214.28;6249995;22;45288;-69
2021/07/24 01:26:28;;;;;;;;;17.00;16.00;;;;;26.78;43.43;100233.78;6276288;22;46052;-69
2021/07/24 01:28:54;;;;;;;;;11.75;11.75;;;;;26.73;43.17;100233.44;6275973;22;48237;-69
2021/07/24 01:31:20;;;;;;;;;17.00;15.25;;;;;26.74;43.56;100242.50;6278304;22;45227;-69
2021/07/24 01:33:45;;;;;;;;;13.75;12.75;;;;;26.74;43.42;100245.22;6278011;22;45278;-69
2021/07/24 01:36:10;;;;;;;;;15.50;13.50;;;;;26.72;43.88;100253.59;6277935;22;45438;-69
2021/07/24 01:38:40;;;;;;;;;16.25;14.75;;;;;26.71;44.59;100256.50;6275754;22;47564;-69
2021/07/24 01:41:10;;;;;;;;;14.00;14.00;;;;;26.60;44.59;100242.06;6277854;22;45196;-69
2021/07/24 01:43:35;;;;;;;;;16.00;15.50;;;;;26.68;44.90;100251.34;6278116;22;45267;-69
2021/07/24 01:46:01;;;;;;;;;15.00;13.00;;;;;26.66;45.52;100257.00;6279460;22;45370;-69
2021/07/24 01:54:02;;;;;;;;;11.25;11.25;;;;;26.52;46.52;100249.41;6279384;22;45114;-69
2021/07/24 01:56:30;;;;;;;;;14.25;13.25;;;;;26.49;47.39;100247.84;6251693;22;45827;-69
2021/07/24 01:58:56;;;;;;;;;11.75;11.75;;;;;26.50;47.56;100241.34;6279240;22;46180;-69
2021/07/24 02:01:26;;;;;;;;;10.00;10.00;;;;;26.29;47.20;100222.63;6279511;22;45392;-69
2021/07/24 02:03:57;;;;;;;;;9.00;9.00;;;;;26.40;47.75;100260.66;6278839;22;45227;-69
2021/07/24 02:06:24;;;;;;;;;8.50;8.50;;;;;26.35;47.74;100254.81;6278945;22;45330;-69
2021/07/24 02:08:50;;;;;;;;;10.50;9.50;;;;;26.34;48.08;100255.81;6279489;22;46121;-69
2021/07/24 02:11:18;;;;;;;;;11.00;8.00;;;;;26.31;48.22;100261.66;6279364;22;45368;-69
2021/07/24 02:13:46;;;;;;;;;8.00;7.25;;;;;26.23;47.77;100250.66;6278729;22;45238;-69
2021/07/24 02:16:12;;;;;;;;;8.25;7.25;;;;;26.21;47.77;100256.28;6279175;22;45372;-69
2021/07/24 02:18:39;;;;;;;;;9.00;8.00;;;;;26.10;47.74;100237.41;6278635;22;46297;-69
2021/07/24 02:21:05;;;;;;;;;8.50;6.25;;;;;26.15;47.88;100265.13;6279213;22;45314;-69
2021/07/24 02:23:30;;;;;;;;;6.75;6.75;;;;;26.13;48.02;100266.31;6279101;22;45670;-69
2021/07/24 02:25:55;;;;;;;;;6.75;5.75;;;;;26.10;47.62;100275.72;6279474;22;45182;-69
2021/07/24 02:28:21;;;;;;;;;6.50;6.50;;;;;26.12;47.52;100281.88;6251194;22;47528;-69
2021/07/24 02:30:46;;;;;;;;;5.75;5.75;;;;;26.13;47.53;100282.72;6279504;22;45191;-69
2021/07/24 02:33:12;;;;;;;;;5.25;4.75;;;;;26.08;47.07;100266.81;6251203;22;45138;-69
2021/07/24 02:35:38;;;;;;;;;4.75;4.75;;;;;26.06;47.22;100271.56;6277180;22;45807;-69
2021/07/24 02:38:04;;;;;;;;;4.75;4.75;;;;;26.11;47.32;100279.28;6250911;22;47091;-69
2021/07/24 02:40:29;;;;;;;;;5.50;5.25;;;;;26.02;47.07;100268.31;6279290;22;45094;-69
2021/07/24 02:42:56;;;;;;;;;5.50;5.50;;;;;26.01;47.26;100269.34;6279226;22;45114;-69
2021/07/24 02:45:21;;;;;;;;;6.00;5.00;;;;;26.09;47.08;100284.06;6251553;22;45273;-69
2021/07/24 02:47:47;;;;;;;;;5.25;5.25;;;;;25.97;47.55;100273.41;6251273;22;48534;-69
2021/07/24 02:50:12;;;;;;;;;8.00;4.50;;;;;26.03;47.37;100288.31;6276807;22;45319;-69
2021/07/24 02:52:38;;;;;;;;;4.25;4.25;;;;;26.00;46.84;100274.97;6278427;22;45351;-69
2021/07/24 02:55:04;;;;;;;;;3.75;3.75;;;;;25.94;47.77;100256.44;6278665;22;45556;-69
2021/07/24 02:57:29;;;;;;;;;3.50;3.50;;;;;25.98;47.40;100264.19;6278361;22;46194;-69
2021/07/24 02:59:54;;;;;;;;;4.00;4.00;;;;;25.76;47.48;100240.06;6277128;22;45271;-69
2021/07/24 03:02:20;;;;;;;;;5.75;4.25;;;;;25.93;47.59;100266.53;6278936;22;45312;-69
2021/07/24 03:04:45;;;;;;;;;5.75;5.75;;;;;25.80;47.56;100257.91;6276829;22;45719;-69
2021/07/24 03:07:11;;;;;;;;;6.00;5.50;;;;;25.88;47.77;100271.63;6278921;22;45237;-69
2021/07/24 03:09:37;;;;;;;;;5.25;4.25;;;;;25.90;47.86;100291.44;6279131;22;45234;-69
2021/07/24 03:12:03;;;;;;;;;3.50;3.50;;;;;25.81;47.73;100268.66;6279249;22;45349;-69
2021/07/24 03:14:29;;;;;;;;;6.00;4.25;;;;;25.83;47.33;100290.38;6251036;22;45387;-69
2021/07/24 03:16:54;;;;;;;;;4.00;4.00;;;;;25.81;47.65;100289.66;6250992;22;46399;-69
2021/07/24 03:19:19;;;;;;;;;7.00;5.00;;;;;25.87;47.63;100313.63;6251324;22;45217;-69
2021/07/24 03:21:45;;;;;;;;;5.50;5.50;;;;;25.82;47.43;100310.53;6251223;22;45394;-69
2021/07/24 03:24:10;;;;;;;;;6.75;6.00;;;;;25.78;47.63;100318.19;6277088;22;45402;-69
2021/07/24 03:26:35;;;;;;;;;6.00;4.00;;;;;25.78;46.92;100331.84;6279085;22;45296;-69
2021/07/24 03:29:01;;;;;;;;;4.25;4.25;;;;;25.60;47.08;100299.06;6279087;22;45363;-69
2021/07/24 03:31:26;;;;;;;;;4.50;4.50;;;;;25.67;47.10;100318.44;6251044;22;45273;-69
2021/07/24 03:33:51;;;;;;;;;4.75;4.75;;;;;25.48;47.17;100290.28;6278724;22;45173;-69
2021/07/24 03:36:17;;;;;;;;;7.00;5.00;;;;;25.47;47.59;100306.81;6278197;22;45946;-69
2021/07/24 03:38:42;;;;;;;;;4.50;4.50;;;;;25.51;47.65;100328.22;6278920;22;45405;-69
2021/07/24 03:41:07;;;;;;;;;3.00;3.00;;;;;25.57;47.90;100347.72;6275700;22;45680;-69
2021/07/24 03:43:33;;;;;;;;;2.25;2.25;;;;;25.54;48.18;100356.25;6277370;22;45347;-69
2021/07/24 03:45:59;;;;;;;;;4.50;4.50;;;;;25.51;48.29;100357.44;6277187;22;45510;-69
2021/07/24 03:48:25;;;;;;;;;4.75;4.00;;;;;25.49;47.90;100373.97;6249762;22;45325;-69
2021/07/24 03:50:50;;;;;;;;;3.25;3.00;;;;;25.46;47.82;100389.78;6277319;22;45319;-69
2021/07/24 03:53:15;;;;;;;;;4.50;4.50;;;;;25.32;47.70;100383.84;6277133;22;45379;-69
2021/07/24 03:55:41;;;;;;;;;5.75;5.25;;;;;25.33;47.28;100392.94;6277328;22;45307;-69
2021/07/24 03:58:06;;;;;;;;;5.50;5.50;;;;;25.36;47.55;100406.28;6275899;22;45326;-69
2021/07/24 04:00:41;;;;;;;;;7.00;6.00;;;;;25.27;47.72;100386.19;6279037;22;45356;-69
2021/07/24 04:03:06;;;;;;;;;4.00;4.00;;;;;25.32;48.09;100402.97;6250984;22;45121;-69
2021/07/24 04:05:38;;;;;;;;;7.25;6.50;;;;;25.25;48.17;100398.25;6278068;22;45876;-69
2021/07/24 04:08:05;;;;;;;;;5.75;4.75;;;;;25.22;48.52;100395.84;6274533;22;45980;-69
2021/07/24 04:10:33;;;;;;;;;6.50;4.25;;;;;25.20;48.68;100404.19;6251098;22;45349;-69
2021/07/24 04:12:58;;;;;;;;;6.00;6.00;;;;;25.13;48.38;100411.28;6250971;22;45255;-69
2021/07/24 04:15:24;;;;;;;;;4.50;3.50;;;;;25.12;48.67;100410.38;6278779;22;45460;-69
2021/07/24 04:17:49;;;;;;;;;4.75;4.25;;;;;25.10;48.35;100401.50;6278969;22;45088;-69
2021/07/24 04:20:15;;;;;;;;;6.75;6.00;;;;;25.11;48.36;100422.34;6225921;22;45270;-69
2021/07/24 04:22:41;;;;;;;;;7.00;6.50;;;;;25.03;48.73;100426.84;6250394;22;45140;-69
2021/07/24 04:25:07;;;;;;;;;5.00;4.25;;;;;25.01;48.88;100415.19;6278828;22;45274;-69
2021/07/24 04:27:32;;;;;;;;;8.25;6.25;;;;;24.98;48.80;100404.59;6278981;22;45612;-69
2021/07/24 04:29:58;;;;;;;;;5.75;5.25;;;;;24.98;48.56;100416.38;6251634;22;45409;-69
2021/07/24 04:32:24;;;;;;;;;7.00;5.75;;;;;24.86;48.89;100396.59;6278275;22;45334;-69
2021/07/24 04:34:49;;;;;;;;;7.50;6.00;;;;;24.83;48.66;100396.06;6278828;22;45827;-69
2021/07/24 04:37:15;;;;;;;;;6.75;4.25;;;;;24.82;48.84;100392.44;6278659;22;45173;-69
2021/07/24 04:39:40;;;;;;;;;5.25;5.25;;;;;24.85;49.06;100410.41;6278718;22;45370;-69
2021/07/24 04:42:06;;;;;;;;;5.25;4.00;;;;;24.81;49.15;100408.97;6278366;22;45435;-69
2021/07/24 04:44:31;;;;;;;;;4.25;4.25;;;;;24.79;48.86;100417.31;6276758;22;46910;-69
2021/07/24 04:46:56;;;;;;;;;6.00;5.00;;;;;24.74;48.90;100423.25;6278736;22;45133;-69
2021/07/24 04:49:22;;;;;;;;;5.75;4.50;;;;;24.62;49.55;100405.31;6278879;22;45224;-69
2021/07/24 04:51:47;;;;;;;;;5.50;5.50;;;;;24.66;48.75;100414.06;6250817;22;45248;-69
2021/07/24 04:54:13;;;;;;;;;6.00;6.00;;;;;24.56;49.31;100395.00;6278046;22;46256;-69
2021/07/24 04:56:39;;;;;;;;;7.25;7.00;;;;;24.55;49.01;100413.22;6278683;22;45284;-69
2021/07/24 04:59:06;;;;;;;;;6.00;6.00;;;;;24.56;49.51;100425.03;6251434;22;45284;-69
2021/07/24 05:01:32;;;;;;;;;5.25;5.25;;;;;24.50;49.37;100428.31;6278891;22;45327;-69
2021/07/24 05:03:58;;;;;;;;;6.75;5.00;;;;;24.50;49.75;100447.41;6277936;22;45348;-69
2021/07/24 05:06:25;;;;;;;;;2.75;2.75;;;;;24.45;49.99;100441.53;6250254;22;45649;-69
2021/07/24 05:08:51;;;;;;;;;7.00;7.00;;;;;24.53;49.59;100458.03;6278764;22;45341;-69
2021/07/24 05:11:16;;;;;;;;;4.00;4.00;;;;;24.28;49.98;100413.16;6225264;22;45178;-69
2021/07/24 05:13:41;;;;;;;;;5.25;5.25;;;;;24.47;50.10;100455.88;6249895;22;50307;-69
2021/07/24 05:16:06;;;;;;;;;5.75;5.25;;;;;24.45;50.08;100463.34;6278430;22;45324;-69
2021/07/24 05:18:32;;;;;;;;;7.25;6.00;;;;;24.41;49.96;100466.38;6278430;22;45070;-69
2021/07/24 05:20:57;;;;;;;;;6.75;6.75;;;;;24.42;50.50;100468.09;6278228;22;45054;-69
2021/07/24 05:23:23;;;;;;;;;7.25;6.00;;;;;24.32;50.51;100461.78;6275636;22;48455;-69
2021/07/24 05:25:49;;;;;;;;;5.75;5.00;;;;;24.37;50.46;100478.59;6250546;22;45121;-69
2021/07/24 05:28:14;;;;;;;;;6.00;6.00;;;;;24.25;50.78;100460.66;6277942;22;45200;-69
2021/07/24 05:30:39;;;;;;;;;7.00;6.25;;;;;24.14;50.63;100444.44;6278503;22;45121;-69
2021/07/24 05:33:05;;;;;;;;;8.50;7.00;;;;;24.24;50.44;100467.13;6277730;22;46046;-69
2021/07/24 05:35:30;;;;;;;;;7.25;7.25;;;;;24.25;50.94;100471.56;6278299;22;45167;-69
2021/07/24 05:37:55;;;;;;;;;5.75;5.00;;;;;24.25;51.14;100468.81;6277786;22;45090;-69
2021/07/24 05:40:21;;;;;;;;;7.00;5.00;;;;;24.05;50.78;100457.06;6278409;22;45530;-69
2021/07/24 05:42:46;;;;;;;;;8.50;7.50;;;;;23.99;51.23;100444.00;6249858;22;48142;-69
2021/07/24 05:45:11;;;;;;;;;7.00;6.75;;;;;24.05;51.40;100465.25;6250560;22;45605;-69
2021/07/24 05:47:37;;;;;;;;;5.25;5.25;;;;;24.03;51.29;100468.13;6250239;22;45271;-69
2021/07/24 05:50:04;;;;;;;;;4.25;4.25;;;;;24.07;51.39;100478.75;6250479;22;45538;-69
2021/07/24 05:52:29;;;;;;;;;7.00;5.75;;;;;24.05;51.37;100478.88;6277068;22;47574;-69
2021/07/24 05:54:54;;;;;;;;;7.25;7.00;;;;;23.78;51.05;100435.97;6278204;22;45396;-69
2021/07/24 05:57:20;;;;;;;;;5.25;5.25;;;;;24.00;51.66;100475.72;6278095;22;45291;-68
2021/07/24 05:59:45;;;;;;;;;7.00;6.00;;;;;23.99;51.38;100477.59;6250177;22;45856;-69
2021/07/24 06:02:15;;;;;;;;;5.75;5.75;;;;;23.72;51.86;100445.53;6278025;22;46348;-72
2021/07/24 06:04:42;;;;;;;;;6.00;5.00;;;;;23.87;51.61;100476.00;6277617;22;45114;-71
2021/07/24 06:07:08;;;;;;;;;5.75;5.75;;;;;23.88;51.69;100475.00;6277713;22;45367;-71
2021/07/24 06:09:33;;;;;;;;;6.75;6.75;;;;;23.88;51.60;100469.56;6277968;22;45181;-71
2021/07/24 06:11:58;;;;;;;;;5.75;5.50;;;;;23.77;51.33;100450.56;6275774;22;46353;-71
2021/07/24 06:14:24;;;;;;;;;6.00;5.75;;;;;23.59;51.94;100426.78;6277645;22;45387;-71
2021/07/24 06:16:51;;;;;;;;;6.50;6.00;;;;;23.78;51.18;100460.50;6276106;22;45252;-72
2021/07/24 06:19:16;;;;;;;;;5.75;5.00;;;;;23.71;51.50;100445.72;6277999;22;45263;-72
2021/07/24 06:21:42;;;;;;;;;5.00;5.00;;;;;23.67;51.66;100451.44;6276657;22;45868;-72
2021/07/24 06:24:08;;;;;;;;;4.25;4.25;;;;;23.71;51.72;100459.34;6249627;22;45202;-73
2021/07/24 06:26:38;;;;;;;;;5.25;5.00;;;;;23.75;51.86;100464.34;6277436;22;45628;-72
2021/07/24 06:29:04;;;;;;;;;3.00;3.00;;;;;23.66;52.06;100446.13;6249920;22;45398;-71
2021/07/24 06:31:29;;;;;;;;;4.25;4.25;;;;;23.67;52.18;100453.28;6250124;22;48115;-72
2021/07/24 06:33:55;;;;;;;;;5.00;4.00;;;;;23.75;52.05;100466.22;6251217;22;45903;-72
2021/07/24 06:36:20;;;;;;;;;5.00;4.75;;;;;23.74;51.20;100462.63;6251445;22;45370;-72
2021/07/24 06:38:46;;;;;;;;;7.25;5.25;;;;;23.68;51.25;100458.59;6279587;22;45326;-72
2021/07/24 06:41:11;;;;;;;;;5.00;5.00;;;;;23.57;51.39;100445.13;6278864;22;45294;-73
2021/07/24 06:43:36;;;;;;;;;5.25;3.25;;;;;23.64;51.41;100465.34;6276612;22;45289;-73
2021/07/24 06:46:12;;;;;;;;;6.00;5.75;;;;;23.66;51.28;100460.59;6278919;22;45575;-73
2021/07/24 06:48:38;;;;;;;;;5.00;4.00;;;;;23.60;51.04;100443.97;6276913;22;45485;-72
2021/07/24 06:51:07;;;;;;;;;6.00;4.75;;;;;23.68;51.37;100458.59;6251222;22;45217;-71
2021/07/24 06:53:36;;;;;;;;;4.25;4.25;;;;;23.61;51.40;100454.72;6250770;22;45390;-73
2021/07/24 06:56:02;;;;;;;;;6.00;5.00;;;;;23.57;51.22;100450.56;6279436;22;45337;-73
2021/07/24 06:58:28;;;;;;;;;7.00;6.75;;;;;23.67;51.27;100467.78;6247544;22;46109;-72
2021/07/24 07:00:54;;;;;;;;;4.75;3.75;;;;;23.58;51.07;100459.59;6277425;22;46050;-72
2021/07/24 07:03:19;;;;;;;;;4.75;4.00;;;;;23.55;51.07;100447.09;6276595;22;45193;-72
2021/07/24 07:05:44;;;;;;;;;4.75;4.25;;;;;23.55;51.49;100435.34;6278024;22;45225;-72
2021/07/24 07:08:09;;;;;;;;;5.00;4.00;;;;;23.58;51.11;100441.38;6276604;22;45583;-73
2021/07/24 07:10:35;;;;;;;;;5.25;5.25;;;;;23.63;51.50;100449.13;6277374;22;46305;-72
2021/07/24 07:13:01;;;;;;;;;4.50;4.50;;;;;23.62;51.72;100453.75;6249081;22;45404;-73
2021/07/24 07:15:27;;;;;;;;;5.00;4.50;;;;;23.67;51.54;100459.63;6278588;22;45525;-72
2021/07/24 07:17:53;;;;;;;;;4.00;4.00;;;;;23.73;51.68;100465.50;6277659;22;45394;-72
2021/07/24 07:20:18;;;;;;;;;4.00;4.00;;;;;23.66;51.64;100457.03;6277930;22;46455;-73
2021/07/24 07:22:44;;;;;;;;;6.00;5.00;;;;;23.62;51.69;100447.41;6278681;22;45350;-72
2021/07/24 07:25:10;;;;;;;;;4.00;4.00;;;;;23.64;51.62;100459.91;6277895;22;45382;-72
2021/07/24 07:27:40;;;;;;;;;5.00;4.75;;;;;23.56;51.48;100448.00;6275652;22;45306;-73
2021/07/24 07:30:06;;;;;;;;;4.00;3.25;;;;;23.70;51.52;100466.63;6277910;22;46156;-72
2021/07/24 07:32:31;;;;;;;;;4.75;4.75;;;;;23.74;51.71;100468.09;6248732;22;45368;-73
2021/07/24 07:34:56;;;;;;;;;5.00;5.00;;;;;23.72;51.59;100463.78;6278067;22;45382;-73
2021/07/24 07:37:22;;;;;;;;;5.50;3.00;;;;;23.71;51.89;100468.38;6250450;22;45504;-72
2021/07/24 07:39:47;;;;;;;;;4.00;4.00;;;;;23.75;51.53;100466.22;6278422;22;48836;-72
2021/07/24 07:42:13;;;;;;;;;5.00;5.00;;;;;23.86;51.35;100479.75;6275603;22;45764;-72
2021/07/24 07:44:38;;;;;;;;;4.25;4.00;;;;;23.92;51.31;100484.59;6278772;22;45367;-71
2021/07/24 07:47:04;;;;;;;;;3.75;3.00;;;;;23.88;51.03;100476.88;6277077;22;45270;-72
2021/07/24 07:49:29;;;;;;;;;5.00;4.00;;;;;23.94;50.76;100482.63;6278146;22;46023;-69
2021/07/24 07:51:55;;;;;;;;;6.00;5.00;;;;;23.92;51.19;100476.44;6277642;22;45386;-72
2021/07/24 07:54:20;;;;;;;;;2.50;2.00;;;;;24.03;50.53;100486.34;6277421;22;45314;-68
2021/07/24 07:56:45;;;;;;;;;5.75;4.00;;;;;23.84;51.08;100435.44;6275761;22;46034;-68
2021/07/24 07:59:11;;;;;;;;;5.00;5.00;;;;;23.86;50.52;100441.59;6250616;22;47398;-71
2021/07/24 08:01:36;;;;;;;;;3.00;2.00;;;;;24.00;51.24;100457.50;6251089;22;46626;-70
2021/07/24 08:04:02;;;;;;;;;6.50;4.25;;;;;24.11;50.47;100461.09;6250672;22;45278;-70
2021/07/24 08:06:27;;;;;;;;;4.00;3.00;;;;;24.19;50.76;100470.28;6276465;22;45184;-70
2021/07/24 08:08:52;;;;;;;;;7.25;5.50;;;;;24.25;50.52;100478.88;6278896;22;45158;-70
2021/07/24 08:11:18;;;;;;;;;4.50;3.25;;;;;24.27;49.80;100469.53;6278003;22;45287;-70
2021/07/24 08:13:43;;;;;;;;;4.00;4.00;;;;;24.22;49.53;100442.72;6278536;22;45172;-70
2021/07/24 08:16:14;;;;;;;;;4.25;4.00;;;;;24.33;49.46;100455.31;6250094;22;51142;-70
2021/07/24 08:18:40;;;;;;;;;3.00;3.00;;;;;24.36;49.68;100457.75;6250412;22;47406;-70
2021/07/24 08:21:05;;;;;;;;;5.50;4.50;;;;;24.45;49.88;100464.19;6250799;22;45394;-70
2021/07/24 08:23:31;;;;;;;;;5.25;5.00;;;;;24.50;49.59;100469.22;6278783;22;45418;-71
2021/07/24 08:25:56;;;;;;;;;3.00;2.50;;;;;24.34;50.04;100437.97;6251129;22;45218;-70
2021/07/24 08:28:26;;;;;;;;;2.50;2.50;;;;;24.57;50.15;100474.00;6278906;22;45264;-70
2021/07/24 08:30:51;;;;;;;;;4.00;4.00;;;;;24.56;50.15;100461.34;6278210;22;45300;-70
2021/07/24 08:33:16;;;;;;;;;3.00;3.00;;;;;24.53;49.91;100447.97;6250892;22;45265;-70
2021/07/24 08:35:42;;;;;;;;;2.75;2.75;;;;;24.57;48.95;100443.09;6278991;22;45258;-70
2021/07/24 08:38:08;;;;;;;;;3.50;3.50;;;;;24.60;49.57;100443.66;6270953;22;46067;-69
2021/07/24 08:40:34;;;;;;;;;5.25;3.50;;;;;24.56;49.83;100431.34;6275453;22;45305;-70
2021/07/24 08:43:07;;;;;;;;;4.50;4.00;;;;;24.74;49.05;100453.25;6248352;22;45327;-70
2021/07/24 08:45:33;;;;;;;;;3.00;3.00;;;;;24.77;49.53;100450.25;6273865;22;45307;-69
2021/07/24 08:47:59;;;;;;;;;4.50;3.50;;;;;24.76;48.82;100445.78;6274044;22;46110;-70
2021/07/24 08:50:25;;;;;;;;;4.25;4.25;;;;;24.71;48.78;100429.00;6278038;22;45635;-70
2021/07/24 08:52:55;;;;;;;;;3.25;3.25;;;;;24.86;48.75;100453.94;6277345;22;45402;-70
2021/07/24 08:55:22;;;;;;;;;4.25;3.00;;;;;24.83;48.83;100440.56;6277514;22;45335;-70
2021/07/24 08:57:50;;;;;;;;;4.00;3.50;;;;;24.88;49.45;100442.88;6277760;22;46835;-70
2021/07/24 09:00:16;;;;;;;;;2.75;2.75;;;;;24.88;48.90;100432.78;6250082;22;45388;-70
2021/07/24 09:02:43;;;;;;;;;3.25;3.25;;;;;24.86;49.11;100433.94;6275543;22;45477;-70
2021/07/24 09:05:12;;;;;;;;;4.00;3.00;;;;;24.88;48.16;100437.41;6250227;22;45678;-70
2021/07/24 09:07:43;;;;;;;;;4.75;3.25;;;;;25.00;48.61;100459.91;6248900;22;47138;-70
2021/07/24 09:10:09;;;;;;;;;5.00;3.50;;;;;25.00;47.74;100452.56;6277507;22;45437;-70
2021/07/24 09:12:36;;;;;;;;;3.00;3.00;;;;;25.01;48.23;100457.03;6277662;22;45402;-70
2021/07/24 09:15:04;;;;;;;;;3.50;3.50;;;;;25.06;48.06;100453.84;6277514;22;45351;-70
2021/07/24 09:17:30;;;;;;;;;2.00;2.00;;;;;25.07;47.46;100448.22;6277102;22;45380;-70
2021/07/24 09:19:56;;;;;;;;;3.00;3.00;;;;;25.10;48.61;100449.81;6276545;22;45474;-71
2021/07/24 09:22:34;;;;;;;;;5.00;4.00;;;;;25.12;47.52;100448.63;6249036;22;45281;-71
2021/07/24 09:25:09;;;;;;;;;3.00;3.00;;;;;25.16;48.40;100454.66;6249211;22;45330;-71
2021/07/24 09:27:35;;;;;;;;;3.00;3.00;;;;;25.12;47.56;100437.69;6249605;22;47514;-71
2021/07/24 09:30:03;;;;;;;;;4.25;4.25;;;;;25.01;47.52;100420.66;6249124;22;45308;-70
2021/07/24 09:32:28;;;;;;;;;4.00;4.00;;;;;25.26;48.17;100449.13;6276615;22;45382;-71
2021/07/24 09:34:54;;;;;;;;;3.00;3.00;;;;;25.29;48.14;100452.47;6247863;22;45720;-71
2021/07/24 09:37:27;;;;;;;;;4.25;2.25;;;;;25.07;47.62;100412.72;6277374;22;46084;-70
2021/07/24 09:39:57;;;;;;;;;2.25;2.25;;;;;25.20;47.30;100427.91;6277383;22;45586;-69
2021/07/24 09:42:32;;;;;;;;;2.00;2.00;;;;;25.32;47.33;100441.22;6277551;22;45214;-70
2021/07/24 09:45:05;;;;;;;;;1.75;1.25;;;;;25.22;47.48;100425.88;6277876;22;45162;-70
2021/07/24 09:47:31;;;;;;;;;4.00;2.25;;;;;25.35;47.45;100448.25;6277694;22;45380;-71
2021/07/24 09:50:16;;;;;;;;;3.00;3.00;;;;;25.42;48.10;100460.28;6277537;22;45283;-72
2021/07/24 09:52:52;;;;;;;;;2.75;2.75;;;;;25.45;47.86;100459.97;6277320;22;45242;-68
2021/07/24 09:55:25;;;;;;;;;4.00;4.00;;;;;25.38;46.95;100447.09;6277548;22;45236;-70
2021/07/24 09:57:52;;;;;;;;;3.50;3.25;;;;;25.43;47.20;100456.56;6278079;22;46097;-70
2021/07/24 10:00:30;;;;;;;;;3.25;3.25;;;;;25.48;47.04;100465.16;6249775;22;45857;-70
2021/07/24 10:03:06;;;;;;;;;5.00;3.25;;;;;25.47;47.80;100474.34;6277674;22;45351;-70
2021/07/24 10:05:40;;;;;;;;;3.50;3.25;;;;;25.39;46.61;100448.81;6278076;22;45300;-67
2021/07/24 10:08:10;;;;;;;;;4.00;2.50;;;;;25.50;46.31;100460.38;6278835;22;45280;-69
2021/07/24 10:10:38;;;;;;;;;3.00;3.00;;;;;25.50;46.68;100456.78;6279432;22;45313;-68
2021/07/24 10:13:07;;;;;;;;;4.75;3.25;;;;;25.56;47.18;100471.72;6250270;22;45372;-70
2021/07/24 10:15:40;;;;;;;;;4.00;3.50;;;;;25.38;46.49;100436.19;6250654;22;45369;-69
2021/07/24 10:18:08;;;;;;;;;4.00;4.00;;;;;25.58;46.55;100473.28;6275799;22;47783;-70
2021/07/24 10:20:46;;;;;;;;;2.00;2.00;;;;;25.59;46.57;100474.13;6277245;22;45700;-70
2021/07/24 10:23:13;;;;;;;;;3.00;2.25;;;;;25.55;46.44;100462.66;6278131;22;45276;-69
2021/07/24 10:25:49;;;;;;;;;3.00;3.00;;;;;25.44;46.38;100436.44;6279296;22;45209;-69
2021/07/24 10:28:23;;;;;;;;;1.75;1.75;;;;;25.61;46.75;100461.16;6279399;22;45864;-70
2021/07/24 10:30:52;;;;;;;;;3.50;3.00;;;;;25.57;46.09;100457.03;6225185;22;45931;-70
2021/07/24 10:33:18;;;;;;;;;1.75;1.75;;;;;25.62;46.09;100455.56;6250626;22;45324;-70
2021/07/24 10:35:44;;;;;;;;;0.50;0.50;;;;;25.56;45.54;100448.00;6251346;22;45685;-71
2021/07/24 10:38:36;;;;;;;;;3.50;3.00;;;;;25.66;46.16;100459.72;6279028;22;45422;-70
2021/07/24 10:41:23;;;;;;;;;3.00;2.25;;;;;25.69;46.37;100456.69;6273191;22;45430;-67
2021/07/24 10:43:58;;;;;;;;;3.00;2.75;;;;;25.73;45.86;100454.50;6270030;22;45349;-68
2021/07/24 10:46:45;;;;;;;;;3.00;3.00;;;;;25.77;46.30;100453.16;6249283;22;45584;-66
2021/07/24 10:49:22;;;;;;;;;4.00;4.00;;;;;25.80;46.44;100443.78;6278052;22;45596;-68
2021/07/24 10:51:54;;;;;;;;;5.75;2.50;;;;;25.70;46.13;100425.56;6277752;22;45363;-67
2021/07/24 10:54:20;;;;;;;;;3.75;3.75;;;;;25.81;45.63;100440.03;6279090;22;45357;-68
2021/07/24 10:56:45;;;;;;;;;2.00;2.00;;;;;25.62;46.40;100400.88;6277304;22;45320;-68
2021/07/24 10:59:17;;;;;;;;;5.00;3.00;;;;;25.92;46.09;100436.22;6251339;22;46865;-68
2021/07/24 11:01:47;;;;;;;;;4.00;4.00;;;;;25.91;45.88;100431.75;6251302;22;45546;-68
2021/07/24 11:04:37;;;;;;;;;3.25;3.25;;;;;25.97;45.70;100442.94;6278661;22;45319;-68
2021/07/24 11:07:21;;;;;;;;;2.00;2.00;;;;;26.01;45.84;100435.28;6278785;22;45244;-68
2021/07/24 11:10:08;;;;;;;;;3.25;3.25;;;;;26.02;45.09;100437.84;6279063;22;45402;-68
2021/07/24 11:12:36;;;;;;;;;2.00;2.00;;;;;25.96;44.88;100432.16;6279032;22;45251;-68
2021/07/24 11:15:11;;;;;;;;;2.25;2.25;;;;;25.98;44.74;100438.34;6251505;22;45397;-67
2021/07/24 11:17:38;;;;;;;;;3.00;3.00;;;;;25.99;44.60;100445.53;6250378;22;45874;-68
2021/07/24 11:20:07;;;;;;;;;4.00;2.00;;;;;26.03;44.64;100453.25;6279133;22;45200;-68
2021/07/24 11:22:35;;;;;;;;;1.75;1.75;;;;;25.82;44.54;100415.25;6250714;22;45244;-68
2021/07/24 11:25:01;;;;;;;;;2.00;2.00;;;;;26.06;45.05;100449.34;6279255;22;45252;-68
2021/07/24 11:27:26;;;;;;;;;3.00;3.00;;;;;26.09;45.10;100449.03;6279196;22;45389;-68